createdAt,value
2023-03-08T00:00:25.422Z,35.50
2023-03-08T00:02:59.259Z,35.30
2023-03-08T00:05:36.008Z,35.50
2023-03-08T00:08:13.065Z,35.80
2023-03-08T00:10:48.784Z,36.00
2023-03-08T00:13:24.836Z,36.50
2023-03-08T00:16:00.199Z,36.70
2023-03-08T00:18:34.704Z,36.20
2023-03-08T00:21:11.609Z,36.00
2023-03-08T00:23:51.874Z,35.90
2023-03-08T00:26:35.819Z,35.70
2023-03-08T00:29:11.211Z,35.60
2023-03-08T00:31:44.087Z,35.40
2023-03-08T00:34:14.422Z,35.20
2023-03-08T00:36:51.212Z,35.50
2023-03-08T00:39:21.997Z,35.90
2023-03-08T00:41:58.826Z,36.20
2023-03-08T00:44:34.467Z,36.30
2023-03-08T00:47:10.583Z,36.80
2023-03-08T00:49:48.590Z,37.00
2023-03-08T00:52:26.071Z,36.90
2023-03-08T00:55:02.803Z,36.50
2023-03-08T00:57:38.241Z,36.30
2023-03-08T01:00:11.590Z,36.10
2023-03-08T01:02:44.732Z,35.80
2023-03-08T01:05:22.416Z,35.80
2023-03-08T01:07:56.387Z,35.60
2023-03-08T01:10:28.420Z,35.50
2023-03-08T01:12:57.649Z,35.80
2023-03-08T01:15:34.792Z,36.00
2023-03-08T01:18:04.083Z,36.50
2023-03-08T01:20:36.148Z,36.60
2023-03-08T01:23:10.004Z,36.60
2023-03-08T01:25:44.270Z,36.20
2023-03-08T01:28:17.207Z,36.00
2023-03-08T01:30:56.924Z,35.80
2023-03-08T01:33:31.072Z,35.70
2023-03-08T01:36:00.384Z,35.60
2023-03-08T01:38:35.243Z,35.40
2023-03-08T01:41:09.969Z,35.30
2023-03-08T01:43:44.965Z,35.70
2023-03-08T01:46:23.675Z,35.90
2023-03-08T01:49:05.052Z,36.20
2023-03-08T01:51:40.715Z,36.50
2023-03-08T01:54:11.542Z,36.50
2023-03-08T01:56:45.306Z,36.20
2023-03-08T01:59:14.747Z,36.00
2023-03-08T02:01:47.185Z,35.80
2023-03-08T02:04:23.179Z,35.70
2023-03-08T02:06:52.496Z,35.60
2023-03-08T02:09:24.150Z,35.40
2023-03-08T02:11:54.982Z,35.30
2023-03-08T02:14:24.237Z,35.60
2023-03-08T02:16:56.116Z,35.80
2023-03-08T02:19:32.907Z,36.30
2023-03-08T02:22:09.086Z,36.40
2023-03-08T02:24:50.299Z,36.70
2023-03-08T02:27:24.104Z,36.20
2023-03-08T02:29:56.995Z,36.00
2023-03-08T02:32:29.119Z,35.80
2023-03-08T02:34:59.147Z,35.70
2023-03-08T02:37:31.956Z,35.60
2023-03-08T02:40:05.611Z,35.40
2023-03-08T02:42:35.041Z,35.30
2023-03-08T02:45:10.088Z,35.60
2023-03-08T02:47:42.932Z,36.50
2023-03-08T02:50:20.196Z,36.20
2023-03-08T02:52:54.363Z,36.50
2023-03-08T02:55:25.170Z,36.70
2023-03-08T02:57:54.458Z,37.00
2023-03-08T03:00:26.882Z,36.90
2023-03-08T03:02:57.861Z,36.50
2023-03-08T03:05:29.481Z,36.30
2023-03-08T03:08:01.791Z,36.10
2023-03-08T03:10:42.331Z,35.80
2023-03-08T03:13:14.267Z,35.70
2023-03-08T03:15:49.124Z,35.60
2023-03-08T03:18:23.521Z,35.50
2023-03-08T03:20:52.871Z,35.80
2023-03-08T03:23:28.781Z,36.10
2023-03-08T03:26:08.009Z,36.40
2023-03-08T03:28:40.064Z,36.70
2023-03-08T03:31:12.637Z,36.60
2023-03-08T03:33:43.945Z,36.30
2023-03-08T03:36:16.571Z,36.10
2023-03-08T03:38:48.842Z,35.90
2023-03-08T03:41:20.402Z,35.70
2023-03-08T03:43:54.708Z,35.70
2023-03-08T03:46:26.136Z,35.50
2023-03-08T03:48:55.516Z,35.30
2023-03-08T03:51:25.229Z,35.70
2023-03-08T03:53:56.372Z,35.80
2023-03-08T03:56:32.431Z,36.20
2023-03-08T03:59:04.046Z,36.50
2023-03-08T04:01:34.001Z,36.70
2023-03-08T04:04:08.115Z,36.30
2023-03-08T04:06:41.930Z,36.10
2023-03-08T04:09:15.633Z,35.90
2023-03-08T04:11:55.170Z,35.70
2023-03-08T04:14:27.489Z,35.50
2023-03-08T04:17:01.145Z,35.40
2023-03-08T04:19:32.641Z,35.30
2023-03-08T04:22:07.213Z,35.60
2023-03-08T04:24:38.567Z,35.80
2023-03-08T04:27:10.936Z,36.10
2023-03-08T04:29:41.767Z,36.40
2023-03-08T04:32:15.741Z,36.70
2023-03-08T04:34:49.481Z,36.30
2023-03-08T04:37:25.810Z,36.10
2023-03-08T04:40:02.879Z,35.90
2023-03-08T04:42:33.780Z,35.70
2023-03-08T04:45:10.692Z,35.50
2023-03-08T04:47:48.442Z,35.50
2023-03-08T04:50:25.424Z,35.20
2023-03-08T04:52:54.740Z,35.40
2023-03-08T04:55:30.739Z,35.70
2023-03-08T04:58:04.537Z,36.10
2023-03-08T05:00:40.252Z,36.30
2023-03-08T05:03:09.659Z,36.70
2023-03-08T05:05:52.941Z,36.80
2023-03-08T05:08:30.121Z,36.90
2023-03-08T05:11:11.002Z,36.60
2023-03-08T05:13:47.649Z,36.30
2023-03-08T05:16:17.022Z,36.10
2023-03-08T05:18:56.099Z,35.90
2023-03-08T05:21:25.776Z,35.70
2023-03-08T05:24:00.694Z,35.60
2023-03-08T05:26:43.427Z,35.40
2023-03-08T05:29:23.622Z,35.60
2023-03-08T05:32:04.565Z,36.10
2023-03-08T05:34:37.775Z,36.40
2023-03-08T05:37:16.824Z,36.60
2023-03-08T05:39:48.384Z,36.60
2023-03-08T05:42:21.859Z,36.30
2023-03-08T05:44:52.649Z,36.10
2023-03-08T05:47:24.452Z,35.80
2023-03-08T05:50:05.430Z,35.70
2023-03-08T05:52:38.279Z,35.60
2023-03-08T05:55:16.176Z,35.40
2023-03-08T05:57:51.148Z,35.30
2023-03-08T06:00:25.154Z,35.70
2023-03-08T06:03:05.324Z,36.00
2023-03-08T06:05:37.544Z,36.30
2023-03-08T06:08:08.565Z,36.70
2023-03-08T06:10:37.932Z,36.50
2023-03-08T06:13:07.375Z,36.20
2023-03-08T06:15:38.057Z,36.00
2023-03-08T06:18:22.848Z,35.80
2023-03-08T06:21:01.033Z,35.70
2023-03-08T06:23:31.920Z,35.50
2023-03-08T06:26:03.852Z,35.30
2023-03-08T06:28:36.358Z,35.20
2023-03-08T06:31:16.770Z,35.70
2023-03-08T06:33:50.070Z,35.90
2023-03-08T06:36:20.231Z,36.30
2023-03-08T06:38:57.534Z,36.50
2023-03-08T06:41:26.929Z,36.50
2023-03-08T06:44:04.988Z,36.20
2023-03-08T06:46:37.153Z,36.00
2023-03-08T06:49:11.521Z,35.80
2023-03-08T06:51:46.218Z,35.70
2023-03-08T06:54:18.930Z,35.50
2023-03-08T06:56:53.757Z,35.40
2023-03-08T06:59:25.869Z,35.30
2023-03-08T07:01:58.741Z,35.50
2023-03-08T07:04:27.968Z,35.90
2023-03-08T07:06:57.392Z,36.10
2023-03-08T07:09:29.059Z,37.10
2023-03-08T07:12:03.817Z,36.70
2023-03-08T07:14:35.610Z,37.00
2023-03-08T07:17:13.970Z,37.00
2023-03-08T07:19:43.261Z,36.80
2023-03-08T07:22:17.819Z,36.30
2023-03-08T07:24:51.980Z,36.00
2023-03-08T07:27:23.004Z,35.90
2023-03-08T07:30:01.349Z,35.70
2023-03-08T07:32:32.308Z,35.60
2023-03-08T07:35:04.191Z,35.40
2023-03-08T07:37:33.648Z,35.80
2023-03-08T07:40:02.869Z,36.00
2023-03-08T07:42:34.678Z,36.20
2023-03-08T07:45:04.236Z,36.60
2023-03-08T07:47:37.940Z,36.70
2023-03-08T07:50:07.623Z,36.30
2023-03-08T07:52:36.869Z,36.10
2023-03-08T07:55:06.889Z,36.00
2023-03-08T07:57:41.564Z,35.80
2023-03-08T08:00:11.951Z,35.60
2023-03-08T08:02:42.979Z,35.40
2023-03-08T08:05:12.278Z,35.90
2023-03-08T08:07:47.989Z,35.50
2023-03-08T08:10:17.497Z,35.80
2023-03-08T08:12:49.840Z,36.80
2023-03-08T08:15:19.578Z,36.50
2023-03-08T08:17:50.506Z,36.70
2023-03-08T08:20:19.908Z,36.30
2023-03-08T08:22:55.443Z,36.10
2023-03-08T08:25:27.213Z,35.90
2023-03-08T08:27:56.555Z,35.70
2023-03-08T08:30:25.858Z,35.60
2023-03-08T08:32:56.633Z,35.40
2023-03-08T08:35:42.138Z,35.20
2023-03-08T08:38:12.284Z,35.30
2023-03-08T08:40:41.663Z,35.70
2023-03-08T08:43:12.841Z,36.00
2023-03-08T08:45:46.111Z,36.20
2023-03-08T08:48:21.577Z,36.70
2023-03-08T08:50:53.841Z,36.20
2023-03-08T08:53:23.499Z,36.10
2023-03-08T08:55:52.850Z,35.90
2023-03-08T08:58:24.663Z,35.70
2023-03-08T09:00:59.799Z,35.60
2023-03-08T09:03:34.845Z,35.40
2023-03-08T09:06:03.940Z,35.30
2023-03-08T09:08:33.432Z,35.20
2023-03-08T09:11:08.522Z,35.60
2023-03-08T09:13:42.279Z,35.90
2023-03-08T09:16:29.276Z,36.20
2023-03-08T09:19:10.673Z,36.60
2023-03-08T09:21:45.400Z,36.90
2023-03-08T09:24:23.085Z,37.10
2023-03-08T09:27:02.974Z,36.60
2023-03-08T09:29:38.544Z,36.40
2023-03-08T09:32:16.587Z,36.10
2023-03-08T09:34:50.303Z,35.90
2023-03-08T09:37:22.423Z,35.80
2023-03-08T09:40:03.302Z,35.60
2023-03-08T09:42:40.273Z,36.10
2023-03-08T09:45:30.160Z,35.50
2023-03-08T09:48:14.464Z,35.90
2023-03-08T09:51:06.337Z,36.20
2023-03-08T09:54:11.756Z,36.50
2023-03-08T09:57:29.717Z,36.80
2023-03-08T10:00:15.454Z,36.30
2023-03-08T10:03:07.427Z,36.10
2023-03-08T10:05:48.510Z,35.80
2023-03-08T10:08:27.744Z,35.60
2023-03-08T10:11:14.401Z,35.50
2023-03-08T10:14:00.752Z,35.40
2023-03-08T10:16:38.264Z,35.50
2023-03-08T10:22:26.030Z,36.10
2023-03-08T10:24:59.307Z,36.50
2023-03-08T10:27:44.471Z,36.70
2023-03-08T10:30:30.353Z,36.30
2023-03-08T10:33:13.858Z,36.00
2023-03-08T10:36:05.088Z,35.80
2023-03-08T10:38:47.891Z,35.60
2023-03-08T10:41:35.647Z,35.50
2023-03-08T10:44:16.424Z,35.30
2023-03-08T10:47:11.373Z,35.30
2023-03-08T10:50:11.083Z,35.70
2023-03-08T10:52:53.752Z,36.00
2023-03-08T10:55:42.304Z,36.60
2023-03-08T10:58:49.010Z,36.80
2023-03-08T11:01:41.668Z,36.30
2023-03-08T11:04:24.364Z,36.00
2023-03-08T11:07:28.241Z,35.80
2023-03-08T11:10:24.646Z,35.60
2023-03-08T11:13:09.684Z,35.40
2023-03-08T11:16:12.182Z,35.30
2023-03-08T11:19:08.828Z,35.30
2023-03-08T11:22:06.882Z,35.90
2023-03-08T11:25:08.458Z,36.10
2023-03-08T11:27:56.889Z,36.70
2023-03-08T11:30:52.195Z,36.90
2023-03-08T11:33:50.143Z,37.10
2023-03-08T11:36:36.418Z,36.70
2023-03-08T11:39:16.076Z,36.30
2023-03-08T11:41:59.085Z,36.10
2023-03-08T11:45:33.257Z,35.90
2023-03-08T11:48:26.882Z,35.80
2023-03-08T11:51:03.448Z,35.50
2023-03-08T11:53:57.431Z,35.40
2023-03-08T11:57:08.247Z,36.00
2023-03-08T11:59:51.486Z,36.30
2023-03-08T12:02:41.156Z,36.60
2023-03-08T12:05:29.681Z,36.80
2023-03-08T12:08:05.662Z,36.30
2023-03-08T12:10:51.317Z,36.10
2023-03-08T12:13:35.292Z,35.90
2023-03-08T12:16:09.593Z,35.70
2023-03-08T12:18:51.347Z,35.70
2023-03-08T12:21:39.795Z,35.50
2023-03-08T12:24:28.389Z,35.30
2023-03-08T12:27:05.888Z,35.70
2023-03-08T12:29:55.939Z,36.10
2023-03-08T12:32:28.790Z,36.50
2023-03-08T12:35:07.279Z,36.70
2023-03-08T12:37:54.665Z,36.40
2023-03-08T12:41:03.651Z,36.70
2023-03-08T12:43:41.854Z,36.10
2023-03-08T12:46:28.545Z,35.70
2023-03-08T12:49:09.370Z,35.60
2023-03-08T12:51:43.745Z,35.40
2023-03-08T12:54:27.430Z,35.30
2023-03-08T12:57:10.274Z,35.50
2023-03-08T12:59:50.034Z,36.00
2023-03-08T13:02:56.169Z,36.30
2023-03-08T13:05:42.062Z,36.60
2023-03-08T13:08:57.984Z,36.50
2023-03-08T13:11:45.131Z,36.10
2023-03-08T13:14:45.528Z,35.90
2023-03-08T13:18:11.227Z,35.70
2023-03-08T13:21:17.450Z,35.60
2023-03-08T13:24:00.238Z,35.30
2023-03-08T13:27:24.554Z,35.20
2023-03-08T13:30:26.603Z,35.80
2023-03-08T13:33:06.335Z,36.00
2023-03-08T13:35:43.831Z,36.50
2023-03-08T13:38:30.571Z,36.70
2023-03-08T13:41:25.472Z,37.10
2023-03-08T13:44:17.984Z,36.70
2023-03-08T13:46:57.967Z,36.50
2023-03-08T13:49:36.384Z,36.20
2023-03-08T13:52:30.363Z,35.90
2023-03-08T13:55:21.093Z,35.70
2023-03-08T13:58:17.677Z,35.60
2023-03-08T14:01:06.653Z,35.50
2023-03-08T14:03:46.788Z,35.80
2023-03-08T14:06:44.591Z,36.00
2023-03-08T14:09:21.220Z,36.30
2023-03-08T14:12:22.832Z,36.60
2023-03-08T14:14:56.861Z,36.60
2023-03-08T14:17:35.543Z,36.20
2023-03-08T14:20:22.711Z,35.90
2023-03-08T14:23:00.706Z,35.80
2023-03-08T14:25:36.584Z,35.70
2023-03-08T14:31:39.494Z,35.30
2023-03-08T14:34:22.413Z,35.50
2023-03-08T14:37:05.450Z,35.80
2023-03-08T14:39:40.018Z,36.10
2023-03-08T14:42:27.739Z,36.60
2023-03-08T14:45:08.310Z,36.60
2023-03-08T14:47:59.009Z,36.20
2023-03-08T14:50:39.469Z,35.90
2023-03-08T14:53:29.702Z,35.70
2023-03-08T14:56:22.554Z,35.60
2023-03-08T14:59:27.369Z,35.40
2023-03-08T15:02:24.293Z,35.30
2023-03-08T15:04:59.536Z,35.50
2023-03-08T15:07:39.483Z,35.80
2023-03-08T15:10:40.274Z,35.90
2023-03-08T15:13:23.747Z,36.30
2023-03-08T15:16:04.391Z,36.60
2023-03-08T15:18:50.810Z,36.20
2023-03-08T15:21:28.349Z,35.90
2023-03-08T15:24:05.450Z,35.80
2023-03-08T15:26:50.554Z,35.60
2023-03-08T15:29:59.535Z,35.40
2023-03-08T15:32:38.357Z,35.30
2023-03-08T15:35:20.969Z,35.30
2023-03-08T15:38:08.443Z,35.70
2023-03-08T15:40:47.780Z,36.00
2023-03-08T15:43:54.914Z,36.30
2023-03-08T15:46:38.915Z,36.70
2023-03-08T15:49:28.126Z,36.90
2023-03-08T15:52:17.253Z,36.80
2023-03-08T15:55:03.004Z,36.40
2023-03-08T15:57:42.035Z,36.20
2023-03-08T16:00:20.047Z,36.00
2023-03-08T16:03:14.037Z,35.70
2023-03-08T16:05:58.746Z,35.60
2023-03-08T16:08:38.598Z,35.40
2023-03-08T16:11:20.823Z,35.70
2023-03-08T16:14:11.586Z,35.90
2023-03-08T16:16:59.297Z,36.10
2023-03-08T16:19:58.729Z,36.60
2023-03-08T16:22:57.479Z,36.70
2023-03-08T16:25:49.197Z,36.20
2023-03-08T16:28:49.729Z,36.00
2023-03-08T16:31:41.534Z,35.70
2023-03-08T16:34:31.640Z,35.50
2023-03-08T16:37:34.895Z,35.40
2023-03-08T16:40:15.881Z,35.20
2023-03-08T16:43:17.940Z,36.10
2023-03-08T16:46:03.240Z,35.70
2023-03-08T16:48:59.662Z,36.00
2023-03-08T16:51:44.820Z,36.50
2023-03-08T16:54:38.754Z,36.30
2023-03-08T16:57:19.391Z,36.00
2023-03-08T16:59:58.907Z,35.80
2023-03-08T17:02:45.249Z,35.60
2023-03-08T17:05:26.330Z,35.50
2023-03-08T17:08:14.645Z,35.30
2023-03-08T17:11:01.797Z,35.20
2023-03-08T17:13:50.919Z,35.30
2023-03-08T17:16:34.500Z,35.70
2023-03-08T17:19:19.484Z,36.00
2023-03-08T17:21:55.417Z,36.40
2023-03-08T17:24:36.961Z,36.40
2023-03-08T17:27:28.068Z,36.00
2023-03-08T17:30:06.995Z,35.80
2023-03-08T17:33:00.514Z,35.60
2023-03-08T17:35:38.043Z,35.50
2023-03-08T17:38:29.184Z,35.30
2023-03-08T17:41:07.595Z,35.30
2023-03-08T17:43:44.524Z,35.30
2023-03-08T17:46:31.063Z,35.60
2023-03-08T17:49:25.501Z,35.90
2023-03-08T17:52:11.754Z,36.10
2023-03-08T17:54:49.200Z,36.50
2023-03-08T17:57:32.355Z,36.90
2023-03-08T18:00:16.229Z,36.90
2023-03-08T18:02:51.768Z,36.30
2023-03-08T18:05:31.246Z,36.10
2023-03-08T18:08:12.953Z,35.90
2023-03-08T18:11:01.966Z,35.70
2023-03-08T18:13:47.550Z,35.50
2023-03-08T18:16:20.527Z,35.30
2023-03-08T18:18:56.729Z,35.40
2023-03-08T18:21:43.254Z,35.70
2023-03-08T18:24:31.712Z,35.90
2023-03-08T18:27:11.336Z,36.30
2023-03-08T18:29:55.928Z,36.70
2023-03-08T18:32:44.230Z,36.50
2023-03-08T18:35:28.170Z,36.00
2023-03-08T18:38:07.871Z,35.70
2023-03-08T18:40:54.001Z,35.50
2023-03-08T18:43:41.900Z,35.50
2023-03-08T18:46:32.432Z,35.30
2023-03-08T18:49:10.418Z,35.20
2023-03-08T18:52:01.179Z,35.70
2023-03-08T18:54:57.351Z,35.70
2023-03-08T18:57:40.895Z,36.10
2023-03-08T19:00:26.256Z,36.60
2023-03-08T19:03:13.945Z,36.10
2023-03-08T19:05:53.897Z,35.90
2023-03-08T19:08:45.241Z,35.70
2023-03-08T19:11:24.463Z,35.60
2023-03-08T19:14:23.447Z,35.50
2023-03-08T19:16:55.512Z,35.30
2023-03-08T19:19:49.544Z,35.10
2023-03-08T19:22:32.564Z,35.50
2023-03-08T19:25:23.940Z,35.80
2023-03-08T19:28:07.115Z,36.10
2023-03-08T19:31:11.867Z,36.40
2023-03-08T19:33:54.421Z,36.20
2023-03-08T19:39:42.927Z,35.70
2023-03-08T19:42:25.333Z,35.50
2023-03-08T19:44:57.569Z,35.40
2023-03-08T19:47:39.318Z,35.20
2023-03-08T19:50:26.541Z,35.10
2023-03-08T19:53:11.850Z,35.30
2023-03-08T19:56:07.102Z,35.70
2023-03-08T19:59:01.132Z,35.90
2023-03-08T20:02:10.585Z,36.30
2023-03-08T20:04:56.518Z,36.70
2023-03-08T20:07:36.797Z,37.10
2023-03-08T20:10:16.310Z,36.40
2023-03-08T20:13:07.378Z,36.10
2023-03-08T20:15:48.546Z,35.90
2023-03-08T20:18:32.346Z,35.70
2023-03-08T20:21:12.311Z,35.60
2023-03-08T20:27:24.100Z,35.30
2023-03-08T20:30:17.464Z,35.80
2023-03-08T20:32:57.430Z,35.90
2023-03-08T20:35:49.534Z,36.20
2023-03-08T20:38:54.827Z,36.70
2023-03-08T20:41:38.532Z,36.10
2023-03-08T20:44:25.855Z,35.80
2023-03-08T20:47:10.745Z,35.70
2023-03-08T20:49:53.381Z,35.60
2023-03-08T20:52:39.890Z,35.30
2023-03-08T20:55:38.699Z,35.20
2023-03-08T20:58:10.742Z,35.20
2023-03-08T21:00:59.055Z,35.70
2023-03-08T21:03:54.255Z,35.90
2023-03-08T21:06:40.599Z,36.10
2023-03-08T21:09:25.437Z,36.60
2023-03-08T21:12:14.575Z,36.10
2023-03-08T21:15:04.029Z,35.90
2023-03-08T21:17:56.108Z,35.70
2023-03-08T21:20:49.006Z,35.60
2023-03-08T21:23:29.167Z,35.30
2023-03-08T21:26:08.878Z,35.30
2023-03-08T21:28:49.992Z,35.10
2023-03-08T21:31:33.391Z,35.60
2023-03-08T21:34:16.394Z,35.80
2023-03-08T21:36:57.431Z,36.10
2023-03-08T21:39:43.559Z,36.40
2023-03-08T21:42:38.127Z,36.10
2023-03-08T21:45:16.821Z,36.50
2023-03-08T21:48:14.918Z,35.70
2023-03-08T21:50:50.238Z,35.50
2023-03-08T21:53:53.440Z,35.40
2023-03-08T21:56:43.270Z,35.20
2023-03-08T21:59:45.080Z,35.10
2023-03-08T22:02:29.138Z,35.60
2023-03-08T22:05:10.150Z,35.80
2023-03-08T22:07:51.694Z,36.00
2023-03-08T22:10:39.989Z,36.30
2023-03-08T22:13:18.402Z,36.80
2023-03-08T22:15:55.212Z,36.90
2023-03-08T22:18:33.292Z,36.40
2023-03-08T22:21:22.406Z,36.10
2023-03-08T22:24:03.576Z,35.90
2023-03-08T22:26:51.359Z,35.70
2023-03-08T22:29:41.194Z,35.60
2023-03-08T22:32:36.345Z,35.30
2023-03-08T22:35:17.635Z,35.30
2023-03-08T22:38:04.184Z,35.70
2023-03-08T22:40:41.527Z,36.00
2023-03-08T22:43:15.331Z,36.10
2023-03-08T22:45:55.782Z,36.70
2023-03-08T22:48:34.562Z,36.20
2023-03-08T22:51:11.725Z,35.90
2023-03-08T22:53:53.134Z,35.80
2023-03-08T22:56:41.305Z,35.70
2023-03-08T22:59:16.113Z,35.50
2023-03-08T23:02:00.416Z,35.30
2023-03-08T23:04:35.221Z,35.20
2023-03-08T23:07:22.376Z,35.50
2023-03-08T23:10:11.074Z,35.70
2023-03-08T23:12:56.020Z,36.00
2023-03-08T23:15:32.122Z,36.20
2023-03-08T23:18:26.640Z,36.40
2023-03-08T23:21:11.711Z,36.10
2023-03-08T23:23:55.890Z,35.80
2023-03-08T23:26:42.208Z,35.70
2023-03-08T23:29:24.337Z,35.50
2023-03-08T23:32:20.383Z,35.30
2023-03-08T23:34:58.392Z,35.20
2023-03-08T23:37:39.929Z,35.20
2023-03-08T23:40:15.412Z,35.70
2023-03-08T23:43:01.320Z,36.00
2023-03-08T23:45:48.882Z,36.10
2023-03-08T23:48:38.442Z,36.60
2023-03-08T23:51:16.852Z,36.00
2023-03-08T23:54:01.572Z,35.90
2023-03-08T23:56:38.461Z,35.70
